createdAt,value
2017-09-28T00:00:16.124Z,0
2017-09-28T00:01:17.510Z,0
2017-09-28T00:02:18.886Z,0
2017-09-28T00:03:20.251Z,0
2017-09-28T00:04:21.620Z,0
2017-09-28T00:05:22.994Z,0
2017-09-28T00:06:24.382Z,0
2017-09-28T00:07:25.788Z,0
2017-09-28T00:08:27.160Z,0
2017-09-28T00:09:28.538Z,0
2017-09-28T00:10:29.932Z,0
2017-09-28T00:11:31.331Z,0
2017-09-28T00:12:32.728Z,0
2017-09-28T00:13:34.100Z,0
2017-09-28T00:14:35.496Z,0
2017-09-28T00:15:36.865Z,0
2017-09-28T00:16:38.244Z,0
2017-09-28T00:17:39.625Z,0
2017-09-28T00:18:41.001Z,0
2017-09-28T00:19:42.378Z,0
2017-09-28T00:20:43.749Z,0
2017-09-28T00:21:45.172Z,0
2017-09-28T00:22:46.557Z,0
2017-09-28T00:23:47.925Z,0
2017-09-28T00:24:49.337Z,0
2017-09-28T00:25:50.716Z,0
2017-09-28T00:26:52.098Z,0
2017-09-28T00:27:53.513Z,0
2017-09-28T00:28:54.885Z,0
2017-09-28T00:29:56.292Z,0
2017-09-28T00:30:57.663Z,0
2017-09-28T00:31:59.030Z,0
2017-09-28T00:33:00.420Z,0
2017-09-28T00:34:01.800Z,0
2017-09-28T00:35:03.169Z,0
2017-09-28T00:36:04.537Z,0
2017-09-28T00:37:05.913Z,0
2017-09-28T00:38:07.320Z,0
2017-09-28T00:39:08.691Z,0
2017-09-28T00:40:10.089Z,0
2017-09-28T00:41:11.456Z,0
2017-09-28T00:42:12.862Z,0
2017-09-28T00:43:14.261Z,0
2017-09-28T00:44:15.651Z,0
2017-09-28T00:45:17.045Z,0
2017-09-28T00:46:18.405Z,0
2017-09-28T00:47:19.819Z,0
2017-09-28T00:48:21.439Z,0
2017-09-28T00:49:22.796Z,0
2017-09-28T00:50:24.170Z,0
2017-09-28T00:51:25.551Z,0
2017-09-28T00:52:26.929Z,0
2017-09-28T00:53:28.320Z,0
2017-09-28T00:54:29.709Z,0
2017-09-28T00:55:31.085Z,0
2017-09-28T00:56:32.463Z,0
2017-09-28T00:57:33.846Z,0
2017-09-28T00:58:35.249Z,0
2017-09-28T00:59:36.632Z,0
2017-09-28T01:00:38.016Z,0
2017-09-28T01:01:39.382Z,0
2017-09-28T01:02:40.773Z,0
2017-09-28T01:03:42.151Z,0
2017-09-28T01:04:43.543Z,0
2017-09-28T01:05:44.916Z,0
2017-09-28T01:06:46.289Z,0
2017-09-28T01:07:47.830Z,0
2017-09-28T01:08:49.236Z,0
2017-09-28T01:09:50.605Z,0
2017-09-28T01:10:52.057Z,0
2017-09-28T01:11:53.724Z,0
2017-09-28T01:12:55.113Z,0
2017-09-28T01:13:56.486Z,0
2017-09-28T01:14:57.861Z,0
2017-09-28T01:15:59.246Z,0
2017-09-28T01:17:00.667Z,0
2017-09-28T01:18:02.009Z,0
2017-09-28T01:19:03.388Z,0
2017-09-28T01:20:04.837Z,0
2017-09-28T01:21:06.216Z,0
2017-09-28T01:22:07.657Z,0
2017-09-28T01:23:09.076Z,0
2017-09-28T01:24:10.513Z,0
2017-09-28T01:25:11.893Z,0
2017-09-28T01:26:13.274Z,0
2017-09-28T01:27:14.670Z,0
2017-09-28T01:28:16.041Z,0
2017-09-28T01:29:17.431Z,0
2017-09-28T01:30:18.799Z,0
2017-09-28T01:31:20.180Z,0
2017-09-28T01:32:21.554Z,0
2017-09-28T01:33:22.924Z,0
2017-09-28T01:34:24.300Z,0
2017-09-28T01:35:25.671Z,0
2017-09-28T01:36:27.051Z,0
2017-09-28T01:37:28.427Z,0
2017-09-28T01:38:29.795Z,0
2017-09-28T01:39:31.169Z,0
2017-09-28T01:40:32.540Z,0
2017-09-28T01:41:33.911Z,0
2017-09-28T01:42:35.296Z,0
2017-09-28T01:43:36.668Z,0
2017-09-28T01:44:38.036Z,0
2017-09-28T01:45:39.411Z,0
2017-09-28T01:46:40.780Z,0
2017-09-28T01:47:42.152Z,0
2017-09-28T01:48:43.526Z,0
2017-09-28T01:49:44.899Z,0
2017-09-28T01:50:46.267Z,0
2017-09-28T01:51:47.637Z,0
2017-09-28T01:52:49.009Z,0
2017-09-28T01:53:50.380Z,0
2017-09-28T01:54:51.753Z,0
2017-09-28T01:55:53.131Z,0
2017-09-28T01:56:54.496Z,0
2017-09-28T01:57:55.867Z,0
2017-09-28T01:58:57.236Z,0
2017-09-28T01:59:58.648Z,0
2017-09-28T02:01:00.156Z,0
2017-09-28T02:02:01.578Z,0
2017-09-28T02:03:02.943Z,0
2017-09-28T02:04:04.300Z,0
2017-09-28T02:05:05.677Z,0
2017-09-28T02:06:07.054Z,0
2017-09-28T02:07:08.453Z,0
2017-09-28T02:08:09.813Z,0
2017-09-28T02:09:11.184Z,0
2017-09-28T02:10:12.553Z,0
2017-09-28T02:11:13.925Z,0
2017-09-28T02:12:15.295Z,0
2017-09-28T02:13:16.666Z,0
2017-09-28T02:14:18.037Z,0
2017-09-28T02:15:19.408Z,0
2017-09-28T02:16:20.783Z,0
2017-09-28T02:17:22.156Z,0
2017-09-28T02:18:23.528Z,0
2017-09-28T02:19:24.906Z,0
2017-09-28T02:20:26.288Z,0
2017-09-28T02:21:27.667Z,0
2017-09-28T02:22:29.072Z,0
2017-09-28T02:23:30.446Z,0
2017-09-28T02:24:31.823Z,0
2017-09-28T02:25:33.204Z,0
2017-09-28T02:26:34.565Z,0
2017-09-28T02:27:35.938Z,0
2017-09-28T02:28:37.308Z,0
2017-09-28T02:29:38.741Z,0
2017-09-28T02:30:40.115Z,0
2017-09-28T02:31:41.487Z,0
2017-09-28T02:32:42.876Z,0
2017-09-28T02:33:44.256Z,0
2017-09-28T02:34:45.628Z,0
2017-09-28T02:35:46.999Z,0
2017-09-28T02:36:48.381Z,0
2017-09-28T02:37:49.750Z,0
2017-09-28T02:38:51.128Z,0
2017-09-28T02:39:52.505Z,0
2017-09-28T02:40:53.876Z,0
2017-09-28T02:41:55.249Z,0
2017-09-28T02:42:56.614Z,0
2017-09-28T02:43:57.990Z,0
2017-09-28T02:44:59.363Z,0
2017-09-28T02:46:00.758Z,0
2017-09-28T02:47:02.155Z,0
2017-09-28T02:48:03.540Z,0
2017-09-28T02:49:04.911Z,0
2017-09-28T02:50:06.293Z,0
2017-09-28T02:51:07.683Z,0
2017-09-28T02:52:09.048Z,0
2017-09-28T02:53:10.431Z,0
2017-09-28T02:54:11.810Z,0
2017-09-28T02:55:13.191Z,0
2017-09-28T02:56:14.567Z,0
2017-09-28T02:57:15.940Z,0
2017-09-28T02:58:17.314Z,0
2017-09-28T02:59:18.686Z,0
2017-09-28T03:00:20.058Z,0
2017-09-28T03:01:21.437Z,0
2017-09-28T03:02:22.871Z,0
2017-09-28T03:03:24.250Z,0
2017-09-28T03:04:25.757Z,0
2017-09-28T03:05:27.121Z,0
2017-09-28T03:06:28.504Z,0
2017-09-28T03:07:29.882Z,0
2017-09-28T03:08:31.252Z,0
2017-09-28T03:09:32.641Z,0
2017-09-28T03:10:34.033Z,0
2017-09-28T03:11:35.409Z,0
2017-09-28T03:12:36.797Z,0
2017-09-28T03:13:38.185Z,0
2017-09-28T03:14:39.572Z,0
2017-09-28T03:15:40.963Z,0
2017-09-28T03:16:42.354Z,0
2017-09-28T03:17:43.755Z,0
2017-09-28T03:18:45.147Z,0
2017-09-28T03:19:46.538Z,0
2017-09-28T03:20:47.911Z,0
2017-09-28T03:21:49.297Z,0
2017-09-28T03:22:50.670Z,0
2017-09-28T03:23:52.051Z,0
2017-09-28T03:24:53.439Z,0
2017-09-28T03:25:54.834Z,0
2017-09-28T03:26:56.205Z,0
2017-09-28T03:27:57.599Z,0
2017-09-28T03:28:59.014Z,0
2017-09-28T03:30:00.393Z,0
2017-09-28T03:31:01.763Z,0
2017-09-28T03:32:03.135Z,0
2017-09-28T03:33:04.509Z,0
2017-09-28T03:34:05.932Z,0
2017-09-28T03:35:07.291Z,0
2017-09-28T03:36:08.697Z,0
2017-09-28T03:37:10.035Z,0
2017-09-28T03:38:11.408Z,0
2017-09-28T03:39:12.788Z,0
2017-09-28T03:40:14.166Z,0
2017-09-28T03:41:15.543Z,0
2017-09-28T03:42:16.927Z,0
2017-09-28T03:43:18.315Z,0
2017-09-28T03:44:19.688Z,0
2017-09-28T03:45:21.077Z,0
2017-09-28T03:46:22.448Z,0
2017-09-28T03:47:23.864Z,0
2017-09-28T03:48:25.247Z,0
2017-09-28T03:49:26.646Z,0
2017-09-28T03:50:28.023Z,0
2017-09-28T03:51:29.428Z,0
2017-09-28T03:52:30.800Z,0
2017-09-28T03:53:32.183Z,0
2017-09-28T03:54:33.562Z,0
2017-09-28T03:55:34.940Z,0
2017-09-28T03:56:36.314Z,0
2017-09-28T03:57:37.687Z,0
2017-09-28T03:58:39.113Z,0
2017-09-28T03:59:40.471Z,0
2017-09-28T04:00:41.854Z,0
2017-09-28T04:01:43.244Z,0
2017-09-28T04:02:44.632Z,0
2017-09-28T04:03:46.006Z,0
2017-09-28T04:04:47.380Z,0
2017-09-28T04:05:48.783Z,0
2017-09-28T04:06:50.251Z,0
2017-09-28T04:07:51.836Z,0
2017-09-28T04:08:53.373Z,0
2017-09-28T04:09:54.743Z,0
2017-09-28T04:10:56.116Z,0
2017-09-28T04:11:57.486Z,0
2017-09-28T04:12:58.880Z,0
2017-09-28T04:14:00.252Z,0
2017-09-28T04:15:01.637Z,0
2017-09-28T04:16:03.010Z,0
2017-09-28T04:17:04.398Z,0
2017-09-28T04:18:05.770Z,0
2017-09-28T04:19:07.145Z,0
2017-09-28T04:20:08.542Z,0
2017-09-28T04:21:09.903Z,0
2017-09-28T04:22:11.285Z,0
2017-09-28T04:23:12.659Z,0
2017-09-28T04:24:14.034Z,0
2017-09-28T04:25:15.400Z,0
2017-09-28T04:26:16.772Z,0
2017-09-28T04:27:18.140Z,0
2017-09-28T04:28:19.531Z,0
2017-09-28T04:29:20.899Z,0
2017-09-28T04:30:22.273Z,0
2017-09-28T04:31:23.656Z,0
2017-09-28T04:32:25.031Z,0
2017-09-28T04:33:26.425Z,0
2017-09-28T04:34:27.831Z,0
2017-09-28T04:35:29.225Z,0
2017-09-28T04:36:30.596Z,0
2017-09-28T04:37:31.992Z,0
2017-09-28T04:38:33.387Z,0
2017-09-28T04:39:34.757Z,0
2017-09-28T04:40:36.130Z,0
2017-09-28T04:41:37.503Z,0
2017-09-28T04:42:38.911Z,0
2017-09-28T04:43:40.291Z,0
2017-09-28T04:44:41.663Z,0
2017-09-28T04:45:43.038Z,0
2017-09-28T04:46:44.450Z,0
2017-09-28T04:47:45.848Z,0
2017-09-28T04:48:47.234Z,0
2017-09-28T04:49:48.609Z,0
2017-09-28T04:50:49.982Z,0
2017-09-28T04:51:51.370Z,0
2017-09-28T04:52:52.746Z,0
2017-09-28T04:53:54.124Z,0
2017-09-28T04:54:55.780Z,0
2017-09-28T04:55:57.159Z,0
2017-09-28T04:56:58.555Z,0
2017-09-28T04:58:00.042Z,0
2017-09-28T04:59:01.421Z,0
2017-09-28T05:00:02.806Z,0
2017-09-28T05:01:04.200Z,0
2017-09-28T05:02:05.581Z,4
2017-09-28T05:03:06.952Z,4
2017-09-28T05:04:08.325Z,0
2017-09-28T05:05:09.701Z,4
2017-09-28T05:06:11.148Z,4
2017-09-28T05:07:12.559Z,4
2017-09-28T05:08:13.950Z,8
2017-09-28T05:09:15.353Z,8
2017-09-28T05:10:16.731Z,8
2017-09-28T05:11:18.104Z,8
2017-09-28T05:12:19.731Z,8
2017-09-28T05:13:21.119Z,12
2017-09-28T05:14:22.502Z,12
2017-09-28T05:15:23.896Z,16
2017-09-28T05:16:25.309Z,20
2017-09-28T05:17:26.710Z,24
2017-09-28T05:18:28.142Z,24
2017-09-28T05:19:29.554Z,32
2017-09-28T05:20:30.938Z,28
2017-09-28T05:21:32.314Z,36
2017-09-28T05:22:33.742Z,40
2017-09-28T05:23:35.216Z,40
2017-09-28T05:24:36.861Z,44
2017-09-28T05:25:38.496Z,48
2017-09-28T05:26:40.123Z,56
2017-09-28T05:27:41.822Z,60
2017-09-28T05:28:43.512Z,72
2017-09-28T05:29:45.142Z,80
2017-09-28T05:30:46.574Z,88
2017-09-28T05:31:47.964Z,100
2017-09-28T05:32:49.352Z,112
2017-09-28T05:33:50.732Z,120
2017-09-28T05:34:52.125Z,140
2017-09-28T05:35:53.506Z,148
2017-09-28T05:36:54.905Z,168
2017-09-28T05:37:56.287Z,188
2017-09-28T05:38:57.664Z,208
2017-09-28T05:39:59.043Z,228
2017-09-28T05:41:00.425Z,248
2017-09-28T05:42:01.799Z,264
2017-09-28T05:43:03.208Z,284
2017-09-28T05:44:04.553Z,300
2017-09-28T05:45:05.928Z,324
2017-09-28T05:46:07.302Z,352
2017-09-28T05:47:08.692Z,384
2017-09-28T05:48:10.056Z,412
2017-09-28T05:49:11.439Z,448
2017-09-28T05:50:12.818Z,472
2017-09-28T05:51:14.201Z,500
2017-09-28T05:52:15.577Z,528
2017-09-28T05:53:16.969Z,556
2017-09-28T05:54:18.342Z,592
2017-09-28T05:55:19.718Z,628
2017-09-28T05:56:21.096Z,660
2017-09-28T05:57:22.470Z,704
2017-09-28T05:58:23.862Z,752
2017-09-28T05:59:25.237Z,800
2017-09-28T06:00:26.614Z,856
2017-09-28T06:01:27.990Z,916
2017-09-28T06:02:29.362Z,972
2017-09-28T06:03:30.739Z,1004
2017-09-28T06:04:32.116Z,1028
2017-09-28T06:05:33.498Z,1040
2017-09-28T06:06:34.873Z,1048
2017-09-28T06:07:36.248Z,1068
2017-09-28T06:08:37.624Z,1108
2017-09-28T06:09:39.016Z,1168
2017-09-28T06:10:40.395Z,1236
2017-09-28T06:11:41.773Z,1312
2017-09-28T06:12:43.149Z,1376
2017-09-28T06:13:44.538Z,1448
2017-09-28T06:14:45.914Z,1504
2017-09-28T06:15:47.291Z,1548
2017-09-28T06:16:48.679Z,1580
2017-09-28T06:17:50.051Z,1604
2017-09-28T06:18:51.427Z,1636
2017-09-28T06:19:52.807Z,1660
2017-09-28T06:20:54.209Z,1688
2017-09-28T06:21:55.585Z,1732
2017-09-28T06:22:56.960Z,1800
2017-09-28T06:23:58.335Z,1888
2017-09-28T06:24:59.743Z,1976
2017-09-28T06:26:01.123Z,2044
2017-09-28T06:27:02.505Z,2088
2017-09-28T06:28:03.881Z,2072
2017-09-28T06:29:05.253Z,2004
2017-09-28T06:30:06.629Z,1924
2017-09-28T06:31:08.011Z,1868
2017-09-28T06:32:09.495Z,1844
2017-09-28T06:33:11.115Z,1840
2017-09-28T06:34:12.734Z,1856
2017-09-28T06:35:14.398Z,1896
2017-09-28T06:36:16.072Z,1956
2017-09-28T06:37:17.453Z,2044
2017-09-28T06:38:18.862Z,2152
2017-09-28T06:39:20.241Z,2268
2017-09-28T06:40:21.620Z,2408
2017-09-28T06:41:23.006Z,2572
2017-09-28T06:42:24.381Z,2768
2017-09-28T06:43:25.764Z,2992
2017-09-28T06:44:27.162Z,3240
2017-09-28T06:45:28.538Z,3480
2017-09-28T06:46:29.930Z,3700
2017-09-28T06:47:31.298Z,3852
2017-09-28T06:48:32.678Z,3960
2017-09-28T06:49:34.140Z,4024
2017-09-28T06:50:35.549Z,4064
2017-09-28T06:51:36.925Z,4104
2017-09-28T06:52:38.308Z,4180
2017-09-28T06:53:39.693Z,4308
2017-09-28T06:54:41.070Z,4456
2017-09-28T06:55:42.453Z,4544
2017-09-28T06:56:43.830Z,4516
2017-09-28T06:57:45.206Z,4396
2017-09-28T06:58:46.622Z,4184
2017-09-28T06:59:47.982Z,4024
2017-09-28T07:00:49.437Z,3984
2017-09-28T07:01:50.822Z,4056
2017-09-28T07:02:52.198Z,4172
2017-09-28T07:03:53.582Z,4284
2017-09-28T07:04:54.977Z,4388
2017-09-28T07:05:56.350Z,4436
2017-09-28T07:06:57.757Z,4464
2017-09-28T07:07:59.181Z,4484
2017-09-28T07:09:00.569Z,4484
2017-09-28T07:10:01.961Z,4552
2017-09-28T07:11:03.339Z,4688
2017-09-28T07:12:04.715Z,4716
2017-09-28T07:13:06.090Z,4588
2017-09-28T07:14:07.471Z,4488
2017-09-28T07:15:08.850Z,4328
2017-09-28T07:16:10.229Z,4464
2017-09-28T07:17:11.610Z,4492
2017-09-28T07:18:12.993Z,4536
2017-09-28T07:19:14.376Z,4508
2017-09-28T07:20:15.751Z,4676
2017-09-28T07:21:17.131Z,4928
2017-09-28T07:22:18.508Z,5208
2017-09-28T07:23:19.886Z,5512
2017-09-28T07:24:21.286Z,5756
2017-09-28T07:25:22.663Z,5968
2017-09-28T07:26:24.047Z,6172
2017-09-28T07:27:25.418Z,6384
2017-09-28T07:28:26.801Z,6588
2017-09-28T07:29:28.181Z,6808
2017-09-28T07:30:29.562Z,7044
2017-09-28T07:31:30.938Z,7308
2017-09-28T07:32:32.319Z,7664
2017-09-28T07:33:33.696Z,8060
2017-09-28T07:34:35.071Z,8236
2017-09-28T07:35:36.451Z,8248
2017-09-28T07:36:37.839Z,8396
2017-09-28T07:37:39.237Z,8688
2017-09-28T07:38:40.618Z,8976
2017-09-28T07:39:42.001Z,9420
2017-09-28T07:40:43.381Z,9908
2017-09-28T07:41:44.758Z,10140
2017-09-28T07:42:46.531Z,10204
2017-09-28T07:43:47.896Z,10416
2017-09-28T07:44:49.324Z,10740
2017-09-28T07:45:50.704Z,11164
2017-09-28T07:46:52.088Z,11392
2017-09-28T07:47:53.465Z,11512
2017-09-28T07:48:54.845Z,11480
2017-09-28T07:49:56.241Z,11296
2017-09-28T07:50:57.626Z,10904
2017-09-28T07:51:59.097Z,10284
2017-09-28T07:53:00.456Z,9400
2017-09-28T07:54:01.839Z,8604
2017-09-28T07:55:03.230Z,7728
2017-09-28T07:56:04.612Z,7108
2017-09-28T07:57:05.989Z,6572
2017-09-28T07:58:07.370Z,6188
2017-09-28T07:59:08.752Z,5912
2017-09-28T08:00:10.134Z,5728
2017-09-28T08:01:11.523Z,5628
2017-09-28T08:02:12.898Z,5576
2017-09-28T08:03:14.288Z,5588
2017-09-28T08:04:15.673Z,5672
2017-09-28T08:05:17.061Z,5820
2017-09-28T08:06:18.434Z,6032
2017-09-28T08:07:19.825Z,6320
2017-09-28T08:08:21.205Z,6668
2017-09-28T08:09:22.587Z,7040
2017-09-28T08:10:23.964Z,7456
2017-09-28T08:11:25.456Z,7900
2017-09-28T08:12:26.966Z,8352
2017-09-28T08:14:08.345Z,8988
2017-09-28T08:15:09.722Z,9304
2017-09-28T08:16:32.711Z,9676
2017-09-28T08:17:34.110Z,9828
2017-09-28T08:18:35.480Z,9928
2017-09-28T08:19:36.860Z,9944
2017-09-28T08:20:38.295Z,9908
2017-09-28T08:21:39.679Z,9812
2017-09-28T08:22:41.060Z,9668
2017-09-28T08:23:42.442Z,9468
2017-09-28T08:24:43.821Z,9236
2017-09-28T08:25:45.203Z,9104
2017-09-28T08:26:46.576Z,8984
2017-09-28T08:27:47.951Z,8860
2017-09-28T08:29:30.320Z,8616
2017-09-28T08:30:31.696Z,8552
2017-09-28T08:31:33.078Z,8704
2017-09-28T08:32:34.459Z,9128
2017-09-28T08:33:35.842Z,9796
2017-09-28T08:34:37.239Z,10636
2017-09-28T08:35:38.606Z,11420
2017-09-28T08:36:39.992Z,12080
2017-09-28T08:37:41.372Z,12528
2017-09-28T08:38:42.755Z,12692
2017-09-28T08:39:44.140Z,12712
2017-09-28T08:40:45.515Z,12576
2017-09-28T08:41:46.896Z,12588
2017-09-28T08:42:48.282Z,12740
2017-09-28T08:43:49.699Z,12740
2017-09-28T08:45:31.083Z,12256
2017-09-28T08:46:32.462Z,11812
2017-09-28T08:47:33.841Z,11516
2017-09-28T08:48:35.225Z,11508
2017-09-28T08:49:36.609Z,11656
2017-09-28T08:50:37.991Z,11768
2017-09-28T08:51:39.370Z,11648
2017-09-28T08:52:40.755Z,11304
2017-09-28T08:53:42.138Z,11004
2017-09-28T08:54:43.513Z,10840
2017-09-28T08:55:44.902Z,10832
2017-09-28T08:56:46.276Z,10984
2017-09-28T08:57:47.663Z,11108
2017-09-28T08:58:49.042Z,11136
2017-09-28T08:59:50.422Z,11052
2017-09-28T09:01:32.809Z,11028
2017-09-28T09:02:34.188Z,11196
2017-09-28T09:03:35.567Z,11480
2017-09-28T09:04:37.008Z,11864
2017-09-28T09:05:38.398Z,12296
2017-09-28T09:06:39.790Z,12752
2017-09-28T09:07:41.167Z,13148
2017-09-28T09:08:42.561Z,13032
2017-09-28T09:09:43.938Z,12484
2017-09-28T09:10:45.322Z,12140
2017-09-28T09:11:46.704Z,12144
2017-09-28T09:12:48.085Z,12636
2017-09-28T09:13:49.475Z,13372
2017-09-28T09:14:50.855Z,14084
2017-09-28T09:15:52.239Z,14404
2017-09-28T09:16:53.613Z,14516
2017-09-28T09:17:54.998Z,14376
2017-09-28T09:18:56.376Z,13916
2017-09-28T09:19:57.762Z,13296
2017-09-28T09:20:59.146Z,12576
2017-09-28T09:22:00.528Z,12008
2017-09-28T09:23:01.913Z,11688
2017-09-28T09:24:03.295Z,11468
2017-09-28T09:25:04.682Z,11396
2017-09-28T09:26:06.122Z,11424
2017-09-28T09:27:07.552Z,11636
2017-09-28T09:28:08.958Z,11876
2017-09-28T09:29:10.312Z,12244
2017-09-28T09:30:11.701Z,12764
2017-09-28T09:31:13.078Z,12988
2017-09-28T09:32:14.459Z,12980
2017-09-28T09:33:15.842Z,12680
2017-09-28T09:34:17.226Z,12148
2017-09-28T09:35:18.607Z,11580
2017-09-28T09:36:19.993Z,11168
2017-09-28T09:37:21.381Z,10760
2017-09-28T09:38:22.762Z,10304
2017-09-28T09:39:24.142Z,9880
2017-09-28T09:40:25.523Z,9540
2017-09-28T09:41:26.910Z,9408
2017-09-28T09:42:28.290Z,9532
2017-09-28T09:43:29.678Z,9840
2017-09-28T09:44:31.075Z,10388
2017-09-28T09:45:32.445Z,11164
2017-09-28T09:46:33.827Z,12216
2017-09-28T09:47:35.210Z,13636
2017-09-28T09:48:36.618Z,15244
2017-09-28T09:49:37.992Z,17152
2017-09-28T09:50:39.383Z,18944
2017-09-28T09:51:40.759Z,20128
2017-09-28T09:52:42.148Z,21824
2017-09-28T09:53:43.533Z,24256
2017-09-28T09:54:44.923Z,27776
2017-09-28T09:55:46.296Z,29952
2017-09-28T09:56:47.702Z,30336
2017-09-28T09:57:49.079Z,29920
2017-09-28T09:58:50.467Z,28576
2017-09-28T09:59:51.849Z,29120
2017-09-28T10:00:53.234Z,26528
2017-09-28T10:01:54.619Z,23872
2017-09-28T10:02:56.004Z,23040
2017-09-28T10:03:57.387Z,23776
2017-09-28T10:04:58.766Z,24512
2017-09-28T10:06:40.148Z,26560
2017-09-28T10:07:41.539Z,27008
2017-09-28T10:09:04.810Z,28000
2017-09-28T10:10:06.170Z,28864
2017-09-28T10:11:07.577Z,29184
2017-09-28T10:12:08.957Z,30496
2017-09-28T10:13:10.345Z,34848
2017-09-28T10:14:11.761Z,30336
2017-09-28T10:15:13.152Z,29632
2017-09-28T10:16:14.565Z,27936
2017-09-28T10:17:15.932Z,28864
2017-09-28T10:18:17.332Z,31296
2017-09-28T10:19:18.707Z,43904
2017-09-28T10:20:20.093Z,44608
2017-09-28T10:22:01.472Z,46400
2017-09-28T10:23:03.309Z,31040
2017-09-28T10:24:04.695Z,30496
2017-09-28T10:25:06.099Z,31296
2017-09-28T10:26:07.496Z,30848
2017-09-28T10:27:08.924Z,30592
2017-09-28T10:28:10.369Z,32448
2017-09-28T10:29:11.877Z,28576
2017-09-28T10:30:13.273Z,29120
2017-09-28T10:31:14.666Z,27200
2017-09-28T10:32:16.061Z,26688
2017-09-28T10:33:17.452Z,26176
2017-09-28T10:34:18.842Z,25696
2017-09-28T10:35:20.236Z,25632
2017-09-28T10:36:21.622Z,26144
2017-09-28T10:38:04.003Z,22496
2017-09-28T10:39:05.404Z,19936
2017-09-28T10:40:06.787Z,17888
2017-09-28T10:41:08.222Z,16608
2017-09-28T10:42:09.610Z,15712
2017-09-28T10:43:11.024Z,14832
2017-09-28T10:44:12.415Z,14100
2017-09-28T10:45:13.811Z,13300
2017-09-28T10:46:15.194Z,13100
2017-09-28T10:47:16.585Z,13568
2017-09-28T10:48:17.975Z,15020
2017-09-28T10:49:19.361Z,16992
2017-09-28T10:50:20.747Z,18304
2017-09-28T10:51:22.135Z,19232
2017-09-28T10:52:23.552Z,20000
2017-09-28T10:53:24.944Z,20416
2017-09-28T10:54:26.328Z,20672
2017-09-28T10:55:27.716Z,20832
2017-09-28T10:56:29.103Z,20096
2017-09-28T10:57:30.493Z,19584
2017-09-28T10:58:31.883Z,19520
2017-09-28T10:59:33.285Z,19872
2017-09-28T11:00:34.664Z,20416
2017-09-28T11:01:36.060Z,20576
2017-09-28T11:02:37.446Z,20864
2017-09-28T11:03:38.831Z,21280
2017-09-28T11:04:40.222Z,21888
2017-09-28T11:05:41.609Z,23488
2017-09-28T11:06:43.009Z,24576
2017-09-28T11:07:44.384Z,23488
2017-09-28T11:08:45.772Z,21536
2017-09-28T11:09:47.157Z,21152
2017-09-28T11:10:48.547Z,20416
2017-09-28T11:11:49.934Z,19776
2017-09-28T11:12:51.323Z,19456
2017-09-28T11:13:52.715Z,19424
2017-09-28T11:14:54.097Z,20320
2017-09-28T11:15:55.490Z,20864
2017-09-28T11:16:56.880Z,20224
2017-09-28T11:17:58.266Z,18784
2017-09-28T11:18:59.653Z,17280
2017-09-28T11:20:01.042Z,16096
2017-09-28T11:21:02.430Z,15224
2017-09-28T11:22:03.816Z,14816
2017-09-28T11:23:05.206Z,15356
2017-09-28T11:24:06.585Z,16128
2017-09-28T11:25:07.974Z,17088
2017-09-28T11:26:09.362Z,16992
2017-09-28T11:27:10.747Z,16256
2017-09-28T11:28:12.139Z,15124
2017-09-28T11:29:13.522Z,14672
2017-09-28T11:30:14.911Z,14524
2017-09-28T11:31:16.298Z,15408
2017-09-28T11:32:17.681Z,16704
2017-09-28T11:33:19.070Z,17408
2017-09-28T11:34:20.463Z,18528
2017-09-28T11:35:21.843Z,19648
2017-09-28T11:36:23.234Z,20192
2017-09-28T11:37:24.620Z,20608
2017-09-28T11:38:26.005Z,21216
2017-09-28T11:39:27.390Z,20128
2017-09-28T11:40:28.776Z,19168
2017-09-28T11:41:30.167Z,18944
2017-09-28T11:42:31.561Z,19040
2017-09-28T11:43:32.946Z,18944
2017-09-28T11:44:34.333Z,20096
2017-09-28T11:45:35.725Z,18304
2017-09-28T11:46:37.103Z,18240
2017-09-28T11:47:38.495Z,18176
2017-09-28T11:48:39.887Z,18144
2017-09-28T11:49:41.273Z,18048
2017-09-28T11:50:42.660Z,17952
2017-09-28T11:51:44.046Z,17376
2017-09-28T11:52:45.431Z,16448
2017-09-28T11:53:46.818Z,15476
2017-09-28T11:54:48.224Z,14552
2017-09-28T11:55:49.619Z,14008
2017-09-28T11:56:51.005Z,13784
2017-09-28T11:57:52.391Z,13512
2017-09-28T11:58:53.775Z,12976
2017-09-28T11:59:55.162Z,12536
2017-09-28T12:00:56.542Z,12104
2017-09-28T12:01:57.937Z,11660
2017-09-28T12:02:59.324Z,11092
2017-09-28T12:04:00.719Z,10616
2017-09-28T12:05:02.096Z,10436
2017-09-28T12:06:03.482Z,10648
2017-09-28T12:07:04.868Z,10968
2017-09-28T12:08:06.249Z,10984
2017-09-28T12:09:07.638Z,10824
2017-09-28T12:10:09.026Z,10608
2017-09-28T12:11:10.413Z,10292
2017-09-28T12:12:11.795Z,10472
2017-09-28T12:13:13.184Z,11292
2017-09-28T12:14:14.569Z,12708
2017-09-28T12:15:15.953Z,14652
2017-09-28T12:16:17.336Z,16832
2017-09-28T12:17:18.733Z,17440
2017-09-28T12:18:20.122Z,16000
2017-09-28T12:19:21.504Z,13792
2017-09-28T12:20:22.888Z,12960
2017-09-28T12:21:24.273Z,13520
2017-09-28T12:22:25.660Z,14736
2017-09-28T12:23:27.044Z,15636
2017-09-28T12:24:28.431Z,16288
2017-09-28T12:25:29.817Z,15840
2017-09-28T12:26:31.203Z,14764
2017-09-28T12:27:32.597Z,14112
2017-09-28T12:28:33.977Z,13156
2017-09-28T12:29:35.363Z,11904
2017-09-28T12:30:36.746Z,11192
2017-09-28T12:31:38.132Z,10924
2017-09-28T12:32:39.526Z,10792
2017-09-28T12:33:40.912Z,10644
2017-09-28T12:34:42.293Z,10576
2017-09-28T12:35:43.678Z,10516
2017-09-28T12:36:45.061Z,10156
2017-09-28T12:37:46.448Z,9464
2017-09-28T12:38:47.834Z,8996
2017-09-28T12:39:49.218Z,8824
2017-09-28T12:40:50.601Z,8936
2017-09-28T12:41:51.984Z,9180
2017-09-28T12:42:53.395Z,9152
2017-09-28T12:43:54.756Z,8612
2017-09-28T12:44:56.135Z,7988
2017-09-28T12:45:57.517Z,7552
2017-09-28T12:46:58.903Z,6816
2017-09-28T12:48:00.285Z,6292
2017-09-28T12:49:01.668Z,6056
2017-09-28T12:50:03.053Z,5944
2017-09-28T12:51:04.437Z,5588
2017-09-28T12:52:05.817Z,5064
2017-09-28T12:53:07.207Z,4548
2017-09-28T12:54:08.598Z,4224
2017-09-28T12:55:09.972Z,3952
2017-09-28T12:56:11.355Z,3952
2017-09-28T12:57:12.738Z,3908
2017-09-28T12:58:14.123Z,3568
2017-09-28T12:59:15.509Z,3116
2017-09-28T13:00:16.899Z,2868
2017-09-28T13:01:18.277Z,3376
2017-09-28T13:02:19.664Z,4340
2017-09-28T13:03:21.043Z,5036
2017-09-28T13:04:22.427Z,5268
2017-09-28T13:05:23.810Z,5576
2017-09-28T13:06:25.195Z,6004
2017-09-28T13:07:26.572Z,6356
2017-09-28T13:08:27.968Z,6692
2017-09-28T13:09:29.348Z,6880
2017-09-28T13:10:30.736Z,6692
2017-09-28T13:11:32.118Z,6228
2017-09-28T13:12:33.498Z,6144
2017-09-28T13:13:34.884Z,6288
2017-09-28T13:14:36.265Z,6448
2017-09-28T13:15:37.651Z,6440
2017-09-28T13:16:39.031Z,6032
2017-09-28T13:17:40.414Z,5468
2017-09-28T13:18:41.800Z,5544
2017-09-28T13:19:43.182Z,5456
2017-09-28T13:20:44.569Z,5148
2017-09-28T13:21:45.958Z,4932
2017-09-28T13:22:47.337Z,4984
2017-09-28T13:23:48.729Z,5188
2017-09-28T13:24:50.112Z,5268
2017-09-28T13:25:51.491Z,5044
2017-09-28T13:26:52.873Z,4728
2017-09-28T13:27:54.256Z,4864
2017-09-28T13:28:55.651Z,5320
2017-09-28T13:29:57.042Z,5536
2017-09-28T13:30:58.416Z,5880
2017-09-28T13:31:59.797Z,6568
2017-09-28T13:33:01.184Z,7228
2017-09-28T13:34:02.565Z,7332
2017-09-28T13:35:03.951Z,6832
2017-09-28T13:36:05.337Z,6340
2017-09-28T13:37:06.714Z,6316
2017-09-28T13:38:08.095Z,6360
2017-09-28T13:39:09.476Z,6124
2017-09-28T13:40:10.859Z,5996
2017-09-28T13:41:12.240Z,5964
2017-09-28T13:42:13.622Z,5928
2017-09-28T13:43:15.004Z,5628
2017-09-28T13:44:16.387Z,5048
2017-09-28T13:45:17.768Z,4628
2017-09-28T13:46:19.148Z,4396
2017-09-28T13:47:20.534Z,4560
2017-09-28T13:48:21.918Z,5088
2017-09-28T13:49:23.299Z,5580
2017-09-28T13:50:24.682Z,6028
2017-09-28T13:51:26.071Z,6752
2017-09-28T13:52:27.457Z,7516
2017-09-28T13:53:28.834Z,7756
2017-09-28T13:54:30.214Z,7780
2017-09-28T13:55:31.603Z,7784
2017-09-28T13:56:32.989Z,7356
2017-09-28T13:57:34.371Z,7140
2017-09-28T13:58:35.761Z,7424
2017-09-28T13:59:37.142Z,8176
2017-09-28T14:00:38.524Z,8604
2017-09-28T14:01:39.912Z,8612
2017-09-28T14:02:41.293Z,8464
2017-09-28T14:03:42.675Z,8928
2017-09-28T14:04:44.057Z,9384
2017-09-28T14:05:45.457Z,9192
2017-09-28T14:06:46.840Z,8612
2017-09-28T14:07:48.225Z,8228